EST,Max TemperatureF,Mean TemperatureF,Min TemperatureF,Max Dew PointF,MeanDew PointF,Min DewpointF,Max Humidity, Mean Humidity, Min Humidity, Max Sea Level PressureIn, Mean Sea Level PressureIn, Min Sea Level PressureIn, Max VisibilityMiles, Mean VisibilityMiles, Min VisibilityMiles, Max Wind SpeedMPH, Mean Wind SpeedMPH, Max Gust SpeedMPH,PrecipitationIn, CloudCover, Events, WindDirDegrees
2013-2-1,14,10,7,5,0,-6,69,61,53,30.13,29.86,29.55,10,10,5,12,7,22,0.00,6,,287
2013-2-2,19,10,2,14,2,-6,89,71,53,30.19,30.10,30.01,10,8,1,10,3,,0.00,7,Snow,265
2013-2-3,19,10,0,11,6,-4,90,82,68,30.04,29.91,29.75,10,8,2,6,1,,0.00,4,Snow,336
2013-2-4,21,12,3,11,1,-11,89,63,39,29.94,29.81,29.74,10,8,2,16,3,26,0.00,4,Snow,269
2013-2-5,17,4,-8,1,-8,-14,79,54,32,30.04,29.97,29.88,10,10,10,6,2,,0.00,2,,110
2013-2-6,26,17,7,20,4,-7,87,59,34,30.40,30.05,29.84,10,9,0,13,5,21,0.00,6,Snow,259
2013-2-7,6,1,-4,-6,-11,-15,65,55,46,30.62,30.53,30.41,10,10,10,9,3,,0.00,4,,353
2013-2-8,24,14,4,20,10,-6,90,81,60,30.43,30.19,30.02,10,4,0,13,3,18,0.00,8,Snow,42
2013-2-9,15,5,-5,10,-1,-10,83,66,47,30.37,30.22,30.02,10,9,2,18,12,28,0.00,3,Snow,360
2013-2-10,26,8,-10,3,-4,-15,83,62,26,30.48,30.38,30.22,10,10,10,8,3,,0.00,0,,132
2013-2-11,38,25,12,33,19,1,94,66,30,30.21,29.81,29.57,10,9,1,21,8,32,0.00,6,Snow,174
2013-2-12,34,33,32,31,27,23,94,78,69,29.81,29.67,29.56,10,9,2,12,6,21,0.00,8,Snow,246
2013-2-13,33,30,27,27,25,24,87,79,71,29.83,29.79,29.76,10,9,4,7,2,,0.00,8,Snow,280
2013-2-14,34,30,27,26,21,15,93,72,46,29.93,29.87,29.76,10,10,7,6,1,,0.00,7,,169
2013-2-15,39,34,27,30,23,14,84,64,50,29.96,29.86,29.79,10,10,5,16,6,24,0.00,6,Snow,201
2013-2-16,27,20,14,18,9,4,82,61,51,30.05,30.00,29.95,10,10,10,9,4,,0.00,1,,326
2013-2-17,14,11,7,6,1,-3,75,64,53,29.95,29.81,29.72,10,10,10,15,7,30,0.00,4,,314
2013-2-18,20,12,4,-1,-5,-8,67,51,28,30.17,30.08,29.89,10,10,10,15,8,25,0.00,0,,292
2013-2-19,40,24,9,31,11,-2,96,56,30,30.13,29.84,29.61,10,9,1,12,6,25,0.00,5,Snow,140
2013-2-20,29,23,15,28,19,12,94,77,61,29.79,29.64,29.59,10,7,1,13,6,24,0.00,8,Snow,261
2013-2-21,17,12,6,13,7,-1,86,76,67,30.39,30.05,29.80,10,5,1,13,6,22,0.00,8,Snow,263
2013-2-22,32,20,8,22,17,5,92,79,62,30.44,30.35,30.22,10,10,7,6,2,,0.00,4,,95
2013-2-23,34,30,27,31,26,20,96,82,61,30.21,30.02,29.87,10,8,1,13,6,18,0.00,8,Snow,144
2013-2-24,32,31,30,31,30,27,96,93,82,29.95,29.85,29.81,10,4,1,6,1,,0.00,8,Snow,340
2013-2-25,34,32,29,31,30,28,96,92,80,30.23,30.12,29.96,10,4,2,5,0,,0.00,8,Snow,343
2013-2-26,40,34,29,32,29,25,96,80,58,30.32,30.25,30.11,10,7,1,8,2,,0.00,8,Snow,89
2013-2-27,38,35,32,31,27,23,95,79,63,30.09,29.87,29.66,10,8,1,14,8,18,0.00,6,Snow,71
2013-2-28,44,38,32,32,30,30,95,85,61,29.65,29.60,29.56,10,10,3,8,4,,0.00,7,Snow,19